sensor_id;sensor_type;location;lat;lon;timestamp;pressure;altitude;pressure_sealevel;temperature
70831;BMP180;58451;51.550;7.208;2023-07-09T00:00:18;101094.00;;;23.10
70831;BMP180;58451;51.550;7.208;2023-07-09T00:01:51;101092.00;;;23.10
70831;BMP180;58451;51.550;7.208;2023-07-09T00:03:22;101088.00;;;23.00
70831;BMP180;58451;51.550;7.208;2023-07-09T00:04:56;101087.80;;;23.00
70831;BMP180;58451;51.550;7.208;2023-07-09T00:06:27;101090.20;;;22.94
70831;BMP180;58451;51.550;7.208;2023-07-09T00:07:58;101088.60;;;22.90
70831;BMP180;58451;51.550;7.208;2023-07-09T00:09:31;101088.80;;;22.90
70831;BMP180;58451;51.550;7.208;2023-07-09T00:11:02;101085.80;;;22.84
70831;BMP180;58451;51.550;7.208;2023-07-09T00:12:33;101085.00;;;22.80
70831;BMP180;58451;51.550;7.208;2023-07-09T00:14:06;101089.00;;;22.70
70831;BMP180;58451;51.550;7.208;2023-07-09T00:15:37;101087.40;;;22.70
70831;BMP180;58451;51.550;7.208;2023-07-09T00:17:26;101087.00;;;22.60
70831;BMP180;58451;51.550;7.208;2023-07-09T00:18:57;101084.60;;;22.60
70831;BMP180;58451;51.550;7.208;2023-07-09T00:20:28;101087.80;;;22.60
70831;BMP180;58451;51.550;7.208;2023-07-09T00:21:59;101080.60;;;22.50
70831;BMP180;58451;51.550;7.208;2023-07-09T00:23:30;101083.60;;;22.50
70831;BMP180;58451;51.550;7.208;2023-07-09T00:25:01;101081.00;;;22.42
70831;BMP180;58451;51.550;7.208;2023-07-09T00:26:33;101078.80;;;22.40
70831;BMP180;58451;51.550;7.208;2023-07-09T00:28:04;101081.40;;;22.40
70831;BMP180;58451;51.550;7.208;2023-07-09T00:29:35;101077.80;;;22.40
70831;BMP180;58451;51.550;7.208;2023-07-09T00:31:16;101083.40;;;22.30
70831;BMP180;58451;51.550;7.208;2023-07-09T00:32:50;101078.20;;;22.30
70831;BMP180;58451;51.550;7.208;2023-07-09T00:34:24;101080.80;;;22.30
70831;BMP180;58451;51.550;7.208;2023-07-09T00:35:56;101083.20;;;22.20
70831;BMP180;58451;51.550;7.208;2023-07-09T00:37:27;101080.20;;;22.20
70831;BMP180;58451;51.550;7.208;2023-07-09T00:38:58;101082.20;;;22.14
70831;BMP180;58451;51.550;7.208;2023-07-09T00:40:35;101080.00;;;22.10
70831;BMP180;58451;51.550;7.208;2023-07-09T00:42:20;101080.40;;;22.10
70831;BMP180;58451;51.550;7.208;2023-07-09T00:43:52;101081.40;;;22.00
70831;BMP180;58451;51.550;7.208;2023-07-09T00:45:26;101080.80;;;22.00
70831;BMP180;58451;51.550;7.208;2023-07-09T00:48:32;101074.60;;;21.90
70831;BMP180;58451;51.550;7.208;2023-07-09T00:50:37;101073.40;;;21.90
70831;BMP180;58451;51.550;7.208;2023-07-09T00:54:01;101072.00;;;21.80
70831;BMP180;58451;51.550;7.208;2023-07-09T00:55:42;101072.40;;;21.80
70831;BMP180;58451;51.550;7.208;2023-07-09T00:57:18;101072.80;;;21.76
70831;BMP180;58451;51.550;7.208;2023-07-09T00:58:51;101072.20;;;21.70
70831;BMP180;58451;51.550;7.208;2023-07-09T01:00:34;101068.60;;;21.70
70831;BMP180;58451;51.550;7.208;2023-07-09T01:02:15;101073.00;;;21.60
70831;BMP180;58451;51.550;7.208;2023-07-09T01:03:52;101075.00;;;21.60
70831;BMP180;58451;51.550;7.208;2023-07-09T01:05:24;101073.00;;;21.56
70831;BMP180;58451;51.550;7.208;2023-07-09T01:06:56;101070.00;;;21.50
70831;BMP180;58451;51.550;7.208;2023-07-09T01:08:32;101070.00;;;21.50
70831;BMP180;58451;51.550;7.208;2023-07-09T01:10:03;101069.20;;;21.50
70831;BMP180;58451;51.550;7.208;2023-07-09T01:11:35;101070.80;;;21.50
70831;BMP180;58451;51.550;7.208;2023-07-09T01:13:09;101068.40;;;21.42
70831;BMP180;58451;51.550;7.208;2023-07-09T01:14:40;101074.00;;;21.40
70831;BMP180;58451;51.550;7.208;2023-07-09T01:16:12;101074.60;;;21.40
70831;BMP180;58451;51.550;7.208;2023-07-09T01:17:43;101070.60;;;21.32
70831;BMP180;58451;51.550;7.208;2023-07-09T01:19:22;101072.00;;;21.30
70831;BMP180;58451;51.550;7.208;2023-07-09T01:21:08;101069.80;;;21.30
70831;BMP180;58451;51.550;7.208;2023-07-09T01:22:40;101075.40;;;21.28
70831;BMP180;58451;51.550;7.208;2023-07-09T01:24:46;101073.60;;;21.20
70831;BMP180;58451;51.550;7.208;2023-07-09T01:26:15;101078.20;;;21.20
70831;BMP180;58451;51.550;7.208;2023-07-09T01:27:47;101075.40;;;21.20
70831;BMP180;58451;51.550;7.208;2023-07-09T01:29:19;101075.00;;;21.16
70831;BMP180;58451;51.550;7.208;2023-07-09T01:30:50;101079.40;;;21.10
70831;BMP180;58451;51.550;7.208;2023-07-09T01:32:25;101080.00;;;21.10
70831;BMP180;58451;51.550;7.208;2023-07-09T01:33:56;101077.00;;;21.10
70831;BMP180;58451;51.550;7.208;2023-07-09T01:35:32;101071.20;;;21.10
70831;BMP180;58451;51.550;7.208;2023-07-09T01:37:04;101070.40;;;21.00
70831;BMP180;58451;51.550;7.208;2023-07-09T01:38:35;101068.20;;;21.00
70831;BMP180;58451;51.550;7.208;2023-07-09T01:40:09;101068.80;;;21.00
70831;BMP180;58451;51.550;7.208;2023-07-09T01:42:00;101069.80;;;20.90
70831;BMP180;58451;51.550;7.208;2023-07-09T01:43:33;101070.60;;;20.90
70831;BMP180;58451;51.550;7.208;2023-07-09T01:45:06;101071.60;;;20.90
70831;BMP180;58451;51.550;7.208;2023-07-09T01:46:37;101071.80;;;20.84
70831;BMP180;58451;51.550;7.208;2023-07-09T01:48:08;101071.40;;;20.80
70831;BMP180;58451;51.550;7.208;2023-07-09T01:49:46;101070.80;;;20.80
70831;BMP180;58451;51.550;7.208;2023-07-09T01:51:18;101069.60;;;20.80
70831;BMP180;58451;51.550;7.208;2023-07-09T01:52:49;101070.60;;;20.74
70831;BMP180;58451;51.550;7.208;2023-07-09T01:54:20;101073.40;;;20.70
70831;BMP180;58451;51.550;7.208;2023-07-09T01:55:52;101072.20;;;20.70
70831;BMP180;58451;51.550;7.208;2023-07-09T01:57:28;101070.80;;;20.68
70831;BMP180;58451;51.550;7.208;2023-07-09T01:59:06;101072.80;;;20.60
70831;BMP180;58451;51.550;7.208;2023-07-09T02:00:37;101073.20;;;20.60
70831;BMP180;58451;51.550;7.208;2023-07-09T02:02:12;101075.60;;;20.60
70831;BMP180;58451;51.550;7.208;2023-07-09T02:03:49;101072.00;;;20.60
70831;BMP180;58451;51.550;7.208;2023-07-09T02:05:21;101069.80;;;20.50
70831;BMP180;58451;51.550;7.208;2023-07-09T02:06:52;101071.60;;;20.50
70831;BMP180;58451;51.550;7.208;2023-07-09T02:08:24;101068.60;;;20.50
70831;BMP180;58451;51.550;7.208;2023-07-09T02:09:55;101072.00;;;20.50
70831;BMP180;58451;51.550;7.208;2023-07-09T02:11:26;101065.80;;;20.46
70831;BMP180;58451;51.550;7.208;2023-07-09T02:12:57;101066.80;;;20.40
70831;BMP180;58451;51.550;7.208;2023-07-09T02:14:28;101071.00;;;20.40
70831;BMP180;58451;51.550;7.208;2023-07-09T02:15:59;101071.60;;;20.40
70831;BMP180;58451;51.550;7.208;2023-07-09T02:17:31;101069.00;;;20.40
70831;BMP180;58451;51.550;7.208;2023-07-09T02:19:02;101071.80;;;20.32
70831;BMP180;58451;51.550;7.208;2023-07-09T02:20:33;101073.20;;;20.30
70831;BMP180;58451;51.550;7.208;2023-07-09T02:22:05;101074.40;;;20.30
70831;BMP180;58451;51.550;7.208;2023-07-09T02:23:37;101076.00;;;20.30
70831;BMP180;58451;51.550;7.208;2023-07-09T02:25:08;101075.60;;;20.20
70831;BMP180;58451;51.550;7.208;2023-07-09T02:26:39;101074.00;;;20.20
70831;BMP180;58451;51.550;7.208;2023-07-09T02:28:11;101075.80;;;20.20
70831;BMP180;58451;51.550;7.208;2023-07-09T02:29:43;101073.40;;;20.20
70831;BMP180;58451;51.550;7.208;2023-07-09T02:31:14;101071.60;;;20.20
70831;BMP180;58451;51.550;7.208;2023-07-09T02:32:46;101072.40;;;20.10
70831;BMP180;58451;51.550;7.208;2023-07-09T02:34:19;101075.40;;;20.10
70831;BMP180;58451;51.550;7.208;2023-07-09T02:35:50;101071.20;;;20.08
70831;BMP180;58451;51.550;7.208;2023-07-09T02:37:24;101075.80;;;20.00
70831;BMP180;58451;51.550;7.208;2023-07-09T02:38:56;101079.60;;;20.00
70831;BMP180;58451;51.550;7.208;2023-07-09T02:40:27;101079.20;;;20.00
70831;BMP180;58451;51.550;7.208;2023-07-09T02:41:58;101082.00;;;20.00
70831;BMP180;58451;51.550;7.208;2023-07-09T02:43:29;101083.00;;;19.90
70831;BMP180;58451;51.550;7.208;2023-07-09T02:45:02;101081.60;;;19.90
70831;BMP180;58451;51.550;7.208;2023-07-09T02:46:35;101082.80;;;19.90
70831;BMP180;58451;51.550;7.208;2023-07-09T02:48:07;101081.20;;;19.90
70831;BMP180;58451;51.550;7.208;2023-07-09T02:49:41;101087.80;;;19.90
70831;BMP180;58451;51.550;7.208;2023-07-09T02:51:12;101084.80;;;19.84
70831;BMP180;58451;51.550;7.208;2023-07-09T02:52:43;101085.80;;;19.80
70831;BMP180;58451;51.550;7.208;2023-07-09T02:54:15;101096.00;;;19.80
70831;BMP180;58451;51.550;7.208;2023-07-09T02:55:46;101090.20;;;19.80
70831;BMP180;58451;51.550;7.208;2023-07-09T02:57:18;101094.00;;;19.80
70831;BMP180;58451;51.550;7.208;2023-07-09T02:58:50;101092.20;;;19.80
70831;BMP180;58451;51.550;7.208;2023-07-09T03:00:21;101090.40;;;19.80
70831;BMP180;58451;51.550;7.208;2023-07-09T03:01:53;101095.20;;;19.70
70831;BMP180;58451;51.550;7.208;2023-07-09T03:03:24;101097.00;;;19.70
70831;BMP180;58451;51.550;7.208;2023-07-09T03:04:56;101095.80;;;19.70
70831;BMP180;58451;51.550;7.208;2023-07-09T03:06:27;101104.20;;;19.62
70831;BMP180;58451;51.550;7.208;2023-07-09T03:07:59;101101.60;;;19.60
70831;BMP180;58451;51.550;7.208;2023-07-09T03:09:30;101105.20;;;19.60
70831;BMP180;58451;51.550;7.208;2023-07-09T03:11:13;101099.40;;;19.60
70831;BMP180;58451;51.550;7.208;2023-07-09T03:12:44;101102.40;;;19.50
70831;BMP180;58451;51.550;7.208;2023-07-09T03:14:16;101098.20;;;19.50
70831;BMP180;58451;51.550;7.208;2023-07-09T03:15:57;101100.60;;;19.50
70831;BMP180;58451;51.550;7.208;2023-07-09T03:17:28;101106.00;;;19.50
70831;BMP180;58451;51.550;7.208;2023-07-09T03:19:01;101106.40;;;19.50
70831;BMP180;58451;51.550;7.208;2023-07-09T03:20:32;101104.60;;;19.50
70831;BMP180;58451;51.550;7.208;2023-07-09T03:22:03;101103.60;;;19.50
70831;BMP180;58451;51.550;7.208;2023-07-09T03:23:34;101100.40;;;19.50
70831;BMP180;58451;51.550;7.208;2023-07-09T03:25:06;101100.20;;;19.50
70831;BMP180;58451;51.550;7.208;2023-07-09T03:26:37;101104.20;;;19.50
70831;BMP180;58451;51.550;7.208;2023-07-09T03:28:08;101108.60;;;19.50
70831;BMP180;58451;51.550;7.208;2023-07-09T03:29:40;101112.60;;;19.50
70831;BMP180;58451;51.550;7.208;2023-07-09T03:31:11;101112.20;;;19.50
70831;BMP180;58451;51.550;7.208;2023-07-09T03:32:43;101115.40;;;19.44
70831;BMP180;58451;51.550;7.208;2023-07-09T03:34:15;101120.40;;;19.40
70831;BMP180;58451;51.550;7.208;2023-07-09T03:35:46;101116.60;;;19.40
70831;BMP180;58451;51.550;7.208;2023-07-09T03:37:17;101120.80;;;19.40
70831;BMP180;58451;51.550;7.208;2023-07-09T03:38:48;101122.00;;;19.40
70831;BMP180;58451;51.550;7.208;2023-07-09T03:40:22;101121.20;;;19.40
70831;BMP180;58451;51.550;7.208;2023-07-09T03:41:53;101122.80;;;19.40
70831;BMP180;58451;51.550;7.208;2023-07-09T03:43:24;101120.40;;;19.40
70831;BMP180;58451;51.550;7.208;2023-07-09T03:44:55;101121.60;;;19.40
70831;BMP180;58451;51.550;7.208;2023-07-09T03:46:27;101121.00;;;19.40
70831;BMP180;58451;51.550;7.208;2023-07-09T03:47:58;101119.40;;;19.40
70831;BMP180;58451;51.550;7.208;2023-07-09T03:49:30;101121.20;;;19.40
70831;BMP180;58451;51.550;7.208;2023-07-09T03:51:01;101122.60;;;19.40
70831;BMP180;58451;51.550;7.208;2023-07-09T03:52:32;101116.60;;;19.40
70831;BMP180;58451;51.550;7.208;2023-07-09T03:54:03;101121.60;;;19.40
70831;BMP180;58451;51.550;7.208;2023-07-09T03:55:34;101117.60;;;19.40
70831;BMP180;58451;51.550;7.208;2023-07-09T03:57:06;101118.60;;;19.40
70831;BMP180;58451;51.550;7.208;2023-07-09T03:58:38;101121.00;;;19.44
70831;BMP180;58451;51.550;7.208;2023-07-09T04:00:10;101118.80;;;19.40
70831;BMP180;58451;51.550;7.208;2023-07-09T04:01:48;101116.80;;;19.48
70831;BMP180;58451;51.550;7.208;2023-07-09T04:03:19;101122.20;;;19.50
70831;BMP180;58451;51.550;7.208;2023-07-09T04:04:51;101119.00;;;19.50
70831;BMP180;58451;51.550;7.208;2023-07-09T04:06:22;101117.20;;;19.50
70831;BMP180;58451;51.550;7.208;2023-07-09T04:07:53;101120.60;;;19.50
70831;BMP180;58451;51.550;7.208;2023-07-09T04:09:24;101121.40;;;19.60
70831;BMP180;58451;51.550;7.208;2023-07-09T04:11:00;101114.20;;;19.60
70831;BMP180;58451;51.550;7.208;2023-07-09T04:12:32;101123.60;;;19.60
70831;BMP180;58451;51.550;7.208;2023-07-09T04:14:03;101116.00;;;19.60
70831;BMP180;58451;51.550;7.208;2023-07-09T04:15:35;101118.00;;;19.60
70831;BMP180;58451;51.550;7.208;2023-07-09T04:17:06;101120.40;;;19.60
70831;BMP180;58451;51.550;7.208;2023-07-09T04:18:37;101121.60;;;19.70
70831;BMP180;58451;51.550;7.208;2023-07-09T04:20:10;101121.80;;;19.70
70831;BMP180;58451;51.550;7.208;2023-07-09T04:21:41;101115.60;;;19.70
70831;BMP180;58451;51.550;7.208;2023-07-09T04:23:13;101119.40;;;19.80
70831;BMP180;58451;51.550;7.208;2023-07-09T04:24:44;101118.60;;;19.80
70831;BMP180;58451;51.550;7.208;2023-07-09T04:26:16;101118.80;;;19.80
70831;BMP180;58451;51.550;7.208;2023-07-09T04:27:47;101119.60;;;19.80
70831;BMP180;58451;51.550;7.208;2023-07-09T04:29:20;101116.60;;;19.90
70831;BMP180;58451;51.550;7.208;2023-07-09T04:30:52;101120.60;;;19.90
70831;BMP180;58451;51.550;7.208;2023-07-09T04:32:23;101123.20;;;19.90
70831;BMP180;58451;51.550;7.208;2023-07-09T04:33:54;101121.40;;;19.90
70831;BMP180;58451;51.550;7.208;2023-07-09T04:35:25;101125.40;;;20.00
70831;BMP180;58451;51.550;7.208;2023-07-09T04:36:56;101122.60;;;20.00
70831;BMP180;58451;51.550;7.208;2023-07-09T04:38:27;101119.00;;;20.00
70831;BMP180;58451;51.550;7.208;2023-07-09T04:39:59;101122.80;;;20.10
70831;BMP180;58451;51.550;7.208;2023-07-09T04:41:30;101121.00;;;20.10
70831;BMP180;58451;51.550;7.208;2023-07-09T04:43:01;101119.40;;;20.14
70831;BMP180;58451;51.550;7.208;2023-07-09T04:44:32;101121.60;;;20.20
70831;BMP180;58451;51.550;7.208;2023-07-09T04:46:05;101122.80;;;20.20
70831;BMP180;58451;51.550;7.208;2023-07-09T04:47:38;101121.80;;;20.30
70831;BMP180;58451;51.550;7.208;2023-07-09T04:49:10;101124.60;;;20.30
70831;BMP180;58451;51.550;7.208;2023-07-09T04:50:43;101121.60;;;20.40
70831;BMP180;58451;51.550;7.208;2023-07-09T04:52:15;101120.00;;;20.40
70831;BMP180;58451;51.550;7.208;2023-07-09T04:53:46;101121.00;;;20.50
70831;BMP180;58451;51.550;7.208;2023-07-09T04:55:17;101122.80;;;20.60
70831;BMP180;58451;51.550;7.208;2023-07-09T04:56:49;101122.60;;;20.60
70831;BMP180;58451;51.550;7.208;2023-07-09T04:58:21;101122.00;;;20.70
70831;BMP180;58451;51.550;7.208;2023-07-09T04:59:52;101119.80;;;20.70
70831;BMP180;58451;51.550;7.208;2023-07-09T05:01:23;101122.60;;;20.80
70831;BMP180;58451;51.550;7.208;2023-07-09T05:02:55;101126.60;;;20.82
70831;BMP180;58451;51.550;7.208;2023-07-09T05:04:26;101122.00;;;20.90
70831;BMP180;58451;51.550;7.208;2023-07-09T05:05:57;101122.20;;;20.90
70831;BMP180;58451;51.550;7.208;2023-07-09T05:07:28;101123.60;;;21.00
70831;BMP180;58451;51.550;7.208;2023-07-09T05:08:59;101117.40;;;21.08
70831;BMP180;58451;51.550;7.208;2023-07-09T05:10:30;101118.80;;;21.12
70831;BMP180;58451;51.550;7.208;2023-07-09T05:12:01;101116.00;;;21.20
70831;BMP180;58451;51.550;7.208;2023-07-09T05:13:33;101118.00;;;21.30
70831;BMP180;58451;51.550;7.208;2023-07-09T05:15:05;101119.60;;;21.40
70831;BMP180;58451;51.550;7.208;2023-07-09T05:16:36;101120.40;;;21.48
70831;BMP180;58451;51.550;7.208;2023-07-09T05:18:07;101120.20;;;21.50
70831;BMP180;58451;51.550;7.208;2023-07-09T05:19:39;101120.80;;;21.60
70831;BMP180;58451;51.550;7.208;2023-07-09T05:21:10;101122.80;;;21.70
70831;BMP180;58451;51.550;7.208;2023-07-09T05:22:42;101126.40;;;21.72
70831;BMP180;58451;51.550;7.208;2023-07-09T05:24:13;101123.20;;;21.80
70831;BMP180;58451;51.550;7.208;2023-07-09T05:25:44;101123.00;;;21.90
70831;BMP180;58451;51.550;7.208;2023-07-09T05:27:15;101125.60;;;22.00
70831;BMP180;58451;51.550;7.208;2023-07-09T05:28:46;101129.60;;;22.04
70831;BMP180;58451;51.550;7.208;2023-07-09T05:30:19;101131.20;;;22.10
70831;BMP180;58451;51.550;7.208;2023-07-09T05:31:50;101129.80;;;22.20
70831;BMP180;58451;51.550;7.208;2023-07-09T05:33:22;101131.60;;;22.28
70831;BMP180;58451;51.550;7.208;2023-07-09T05:34:53;101133.60;;;22.30
70831;BMP180;58451;51.550;7.208;2023-07-09T05:36:26;101131.80;;;22.40
70831;BMP180;58451;51.550;7.208;2023-07-09T05:37:58;101132.40;;;22.50
70831;BMP180;58451;51.550;7.208;2023-07-09T05:39:29;101134.60;;;22.50
70831;BMP180;58451;51.550;7.208;2023-07-09T05:41:02;101131.40;;;22.60
70831;BMP180;58451;51.550;7.208;2023-07-09T05:42:34;101132.00;;;22.66
70831;BMP180;58451;51.550;7.208;2023-07-09T05:44:05;101131.00;;;22.70
70831;BMP180;58451;51.550;7.208;2023-07-09T05:45:39;101129.60;;;22.80
70831;BMP180;58451;51.550;7.208;2023-07-09T05:47:10;101135.40;;;22.90
70831;BMP180;58451;51.550;7.208;2023-07-09T05:48:41;101130.00;;;23.00
70831;BMP180;58451;51.550;7.208;2023-07-09T05:50:12;101130.00;;;23.02
70831;BMP180;58451;51.550;7.208;2023-07-09T05:51:43;101126.40;;;23.10
70831;BMP180;58451;51.550;7.208;2023-07-09T05:53:15;101128.20;;;23.20
70831;BMP180;58451;51.550;7.208;2023-07-09T05:54:49;101127.20;;;23.30
70831;BMP180;58451;51.550;7.208;2023-07-09T05:56:20;101128.20;;;23.34
70831;BMP180;58451;51.550;7.208;2023-07-09T05:57:53;101125.60;;;23.40
70831;BMP180;58451;51.550;7.208;2023-07-09T05:59:24;101132.40;;;23.50
70831;BMP180;58451;51.550;7.208;2023-07-09T06:00:55;101130.80;;;23.60
70831;BMP180;58451;51.550;7.208;2023-07-09T06:02:28;101132.00;;;23.70
70831;BMP180;58451;51.550;7.208;2023-07-09T06:03:59;101133.40;;;23.80
70831;BMP180;58451;51.550;7.208;2023-07-09T06:05:31;101135.00;;;23.86
70831;BMP180;58451;51.550;7.208;2023-07-09T06:07:03;101138.00;;;23.92
70831;BMP180;58451;51.550;7.208;2023-07-09T06:08:34;101140.60;;;24.00
70831;BMP180;58451;51.550;7.208;2023-07-09T06:10:08;101139.80;;;24.10
70831;BMP180;58451;51.550;7.208;2023-07-09T06:11:39;101140.60;;;24.20
70831;BMP180;58451;51.550;7.208;2023-07-09T06:13:10;101143.00;;;24.30
70831;BMP180;58451;51.550;7.208;2023-07-09T06:14:41;101145.20;;;24.40
70831;BMP180;58451;51.550;7.208;2023-07-09T06:16:13;101139.20;;;24.50
70831;BMP180;58451;51.550;7.208;2023-07-09T06:17:44;101140.00;;;24.60
70831;BMP180;58451;51.550;7.208;2023-07-09T06:19:15;101140.00;;;24.64
70831;BMP180;58451;51.550;7.208;2023-07-09T06:20:55;101142.40;;;24.70
70831;BMP180;58451;51.550;7.208;2023-07-09T06:22:26;101137.40;;;24.80
70831;BMP180;58451;51.550;7.208;2023-07-09T06:23:57;101139.00;;;24.90
70831;BMP180;58451;51.550;7.208;2023-07-09T06:25:29;101141.40;;;25.00
70831;BMP180;58451;51.550;7.208;2023-07-09T06:27:00;101143.60;;;25.10
70831;BMP180;58451;51.550;7.208;2023-07-09T06:28:32;101141.20;;;25.20
70831;BMP180;58451;51.550;7.208;2023-07-09T06:30:04;101142.20;;;25.30
70831;BMP180;58451;51.550;7.208;2023-07-09T06:31:36;101144.20;;;25.40
70831;BMP180;58451;51.550;7.208;2023-07-09T06:33:08;101146.20;;;25.48
70831;BMP180;58451;51.550;7.208;2023-07-09T06:34:40;101147.00;;;25.60
70831;BMP180;58451;51.550;7.208;2023-07-09T06:36:11;101150.00;;;25.70
70831;BMP180;58451;51.550;7.208;2023-07-09T06:37:42;101148.40;;;25.80
70831;BMP180;58451;51.550;7.208;2023-07-09T06:39:13;101146.40;;;25.88
70831;BMP180;58451;51.550;7.208;2023-07-09T06:40:45;101143.80;;;25.90
70831;BMP180;58451;51.550;7.208;2023-07-09T06:42:17;101149.20;;;26.00
70831;BMP180;58451;51.550;7.208;2023-07-09T06:44:00;101144.60;;;26.12
70831;BMP180;58451;51.550;7.208;2023-07-09T06:45:31;101145.40;;;26.26
70831;BMP180;58451;51.550;7.208;2023-07-09T06:47:03;101145.40;;;26.40
70831;BMP180;58451;51.550;7.208;2023-07-09T06:48:35;101147.40;;;26.50
70831;BMP180;58451;51.550;7.208;2023-07-09T06:50:06;101147.80;;;26.60
70831;BMP180;58451;51.550;7.208;2023-07-09T06:51:38;101146.40;;;26.60
70831;BMP180;58451;51.550;7.208;2023-07-09T06:53:09;101148.20;;;26.70
70831;BMP180;58451;51.550;7.208;2023-07-09T06:54:40;101146.20;;;26.80
70831;BMP180;58451;51.550;7.208;2023-07-09T06:56:11;101147.20;;;26.90
70831;BMP180;58451;51.550;7.208;2023-07-09T06:57:42;101146.40;;;26.94
70831;BMP180;58451;51.550;7.208;2023-07-09T06:59:14;101144.40;;;27.00
70831;BMP180;58451;51.550;7.208;2023-07-09T07:00:49;101147.40;;;27.08
70831;BMP180;58451;51.550;7.208;2023-07-09T07:02:20;101146.60;;;27.10
70831;BMP180;58451;51.550;7.208;2023-07-09T07:03:54;101145.60;;;27.14
70831;BMP180;58451;51.550;7.208;2023-07-09T07:05:26;101150.20;;;27.24
70831;BMP180;58451;51.550;7.208;2023-07-09T07:06:57;101152.00;;;27.32
70831;BMP180;58451;51.550;7.208;2023-07-09T07:08:28;101150.80;;;27.40
70831;BMP180;58451;51.550;7.208;2023-07-09T07:10:00;101154.20;;;27.50
70831;BMP180;58451;51.550;7.208;2023-07-09T07:11:31;101151.40;;;27.58
70831;BMP180;58451;51.550;7.208;2023-07-09T07:13:02;101151.80;;;27.62
70831;BMP180;58451;51.550;7.208;2023-07-09T07:14:33;101151.00;;;27.70
70831;BMP180;58451;51.550;7.208;2023-07-09T07:16:09;101152.40;;;27.80
70831;BMP180;58451;51.550;7.208;2023-07-09T07:17:40;101149.40;;;27.90
70831;BMP180;58451;51.550;7.208;2023-07-09T07:19:12;101152.80;;;28.00
70831;BMP180;58451;51.550;7.208;2023-07-09T07:20:43;101151.80;;;28.10
70831;BMP180;58451;51.550;7.208;2023-07-09T07:22:14;101150.80;;;28.16
70831;BMP180;58451;51.550;7.208;2023-07-09T07:23:45;101144.20;;;28.24
70831;BMP180;58451;51.550;7.208;2023-07-09T07:25:16;101143.80;;;28.34
70831;BMP180;58451;51.550;7.208;2023-07-09T07:26:48;101145.60;;;28.50
70831;BMP180;58451;51.550;7.208;2023-07-09T07:28:19;101140.80;;;28.52
70831;BMP180;58451;51.550;7.208;2023-07-09T07:29:50;101136.60;;;28.60
70831;BMP180;58451;51.550;7.208;2023-07-09T07:31:21;101137.60;;;28.60
70831;BMP180;58451;51.550;7.208;2023-07-09T07:32:52;101137.20;;;28.70
70831;BMP180;58451;51.550;7.208;2023-07-09T07:34:23;101138.60;;;28.78
70831;BMP180;58451;51.550;7.208;2023-07-09T07:35:55;101136.20;;;28.88
70831;BMP180;58451;51.550;7.208;2023-07-09T07:37:46;101139.80;;;28.90
70831;BMP180;58451;51.550;7.208;2023-07-09T07:39:17;101143.20;;;28.80
70831;BMP180;58451;51.550;7.208;2023-07-09T07:40:49;101139.40;;;28.90
70831;BMP180;58451;51.550;7.208;2023-07-09T07:42:20;101142.00;;;29.00
70831;BMP180;58451;51.550;7.208;2023-07-09T07:43:51;101147.00;;;29.10
70831;BMP180;58451;51.550;7.208;2023-07-09T07:45:22;101143.20;;;29.12
70831;BMP180;58451;51.550;7.208;2023-07-09T07:46:53;101141.60;;;29.22
70831;BMP180;58451;51.550;7.208;2023-07-09T07:48:25;101146.00;;;29.36
70831;BMP180;58451;51.550;7.208;2023-07-09T07:49:56;101152.20;;;29.42
70831;BMP180;58451;51.550;7.208;2023-07-09T07:51:28;101149.20;;;29.50
70831;BMP180;58451;51.550;7.208;2023-07-09T07:52:59;101146.60;;;29.60
70831;BMP180;58451;51.550;7.208;2023-07-09T07:54:31;101152.60;;;29.70
70831;BMP180;58451;51.550;7.208;2023-07-09T07:56:05;101153.80;;;29.70
70831;BMP180;58451;51.550;7.208;2023-07-09T07:57:37;101150.40;;;29.80
70831;BMP180;58451;51.550;7.208;2023-07-09T07:59:08;101149.20;;;29.80
70831;BMP180;58451;51.550;7.208;2023-07-09T08:00:39;101150.40;;;29.90
70831;BMP180;58451;51.550;7.208;2023-07-09T08:02:14;101151.20;;;30.00
70831;BMP180;58451;51.550;7.208;2023-07-09T08:03:45;101150.80;;;30.00
70831;BMP180;58451;51.550;7.208;2023-07-09T08:05:16;101150.80;;;30.10
70831;BMP180;58451;51.550;7.208;2023-07-09T08:06:47;101149.00;;;30.20
70831;BMP180;58451;51.550;7.208;2023-07-09T08:08:18;101148.00;;;30.30
70831;BMP180;58451;51.550;7.208;2023-07-09T08:09:50;101148.60;;;30.40
70831;BMP180;58451;51.550;7.208;2023-07-09T08:11:21;101142.20;;;30.48
70831;BMP180;58451;51.550;7.208;2023-07-09T08:12:52;101140.40;;;30.54
70831;BMP180;58451;51.550;7.208;2023-07-09T08:14:27;101143.80;;;30.60
70831;BMP180;58451;51.550;7.208;2023-07-09T08:15:58;101142.20;;;30.70
70831;BMP180;58451;51.550;7.208;2023-07-09T08:17:30;101141.60;;;30.70
70831;BMP180;58451;51.550;7.208;2023-07-09T08:19:01;101140.40;;;30.76
70831;BMP180;58451;51.550;7.208;2023-07-09T08:20:32;101138.00;;;30.80
70831;BMP180;58451;51.550;7.208;2023-07-09T08:22:04;101138.80;;;30.90
70831;BMP180;58451;51.550;7.208;2023-07-09T08:23:36;101136.60;;;30.94
70831;BMP180;58451;51.550;7.208;2023-07-09T08:25:07;101136.20;;;31.00
70831;BMP180;58451;51.550;7.208;2023-07-09T08:26:39;101136.60;;;31.10
70831;BMP180;58451;51.550;7.208;2023-07-09T08:28:10;101136.40;;;31.10
70831;BMP180;58451;51.550;7.208;2023-07-09T08:29:41;101139.40;;;31.10
70831;BMP180;58451;51.550;7.208;2023-07-09T08:31:13;101137.80;;;31.00
70831;BMP180;58451;51.550;7.208;2023-07-09T08:32:44;101142.20;;;31.10
70831;BMP180;58451;51.550;7.208;2023-07-09T08:34:15;101143.00;;;31.12
70831;BMP180;58451;51.550;7.208;2023-07-09T08:35:49;101141.80;;;31.20
70831;BMP180;58451;51.550;7.208;2023-07-09T08:37:21;101143.40;;;31.30
70831;BMP180;58451;51.550;7.208;2023-07-09T08:38:52;101138.60;;;31.40
70831;BMP180;58451;51.550;7.208;2023-07-09T08:40:24;101138.40;;;31.40
70831;BMP180;58451;51.550;7.208;2023-07-09T08:42:02;101135.80;;;31.40
70831;BMP180;58451;51.550;7.208;2023-07-09T08:43:58;101134.60;;;31.40
70831;BMP180;58451;51.550;7.208;2023-07-09T08:47:34;101132.20;;;31.60
70831;BMP180;58451;51.550;7.208;2023-07-09T08:49:19;101128.00;;;31.76
70831;BMP180;58451;51.550;7.208;2023-07-09T08:50:58;101129.80;;;31.80